Time;durP1;ratioP1;P1;durP2;ratioP2;P2;SDS_P1;SDS_P2;PMS_P1;PMS_P2;Temp;Humidity;BMP_temperature;BMP_pressure;BME280_temperature;BME280_humidity;BME280_pressure;Samples;Min_cycle;Max_cycle;Signal;HPM_P1;HPM_P2
2022/05/23 00:02:12;;;;;;;7.78;2.08;;;15.10;99.90;;;;;;5093990;28;20404;-67
2022/05/23 00:04:39;;;;;;;3.08;1.67;;;15.00;99.90;;;;;;5093879;28;20389;-67
2022/05/23 00:07:11;;;;;;;5.90;2.42;;;15.00;99.90;;;;;;5093750;28;20246;-67
2022/05/23 00:09:37;;;;;;;6.18;2.20;;;15.00;99.90;;;;;;5093379;28;20071;-67
2022/05/23 00:12:03;;;;;;;8.82;2.00;;;15.00;99.90;;;;;;5093588;28;20686;-67
2022/05/23 00:14:30;;;;;;;3.70;1.58;;;15.00;99.90;;;;;;5093120;28;20044;-67
2022/05/23 00:16:55;;;;;;;7.72;2.38;;;14.90;99.90;;;;;;5093697;28;20419;-67
2022/05/23 00:19:22;;;;;;;5.13;1.88;;;14.90;99.90;;;;;;5093183;28;20028;-67
2022/05/23 00:21:49;;;;;;;2.85;1.90;;;14.90;99.90;;;;;;5093369;28;20484;-67
2022/05/23 00:24:15;;;;;;;6.63;2.20;;;14.80;99.90;;;;;;5093426;28;20055;-67
2022/05/23 00:26:43;;;;;;;5.25;2.00;;;14.80;99.90;;;;;;5093253;28;20063;-67
2022/05/23 00:29:09;;;;;;;7.47;2.60;;;14.80;99.90;;;;;;5092787;28;20484;-67
2022/05/23 00:31:35;;;;;;;5.93;2.03;;;14.70;99.90;;;;;;5093063;28;20051;-66
2022/05/23 00:37:01;;;;;;;2.75;2.05;;;14.60;99.90;;;;;;5030438;28;20073;-67
2022/05/23 00:39:27;;;;;;;4.18;2.25;;;14.60;99.90;;;;;;5074729;28;20048;-67
2022/05/23 00:44:37;;;;;;;3.83;1.92;;;14.60;99.90;;;;;;5093210;28;20044;-67
2022/05/23 00:47:24;;;;;;;7.90;2.28;;;14.60;99.90;;;;;;5093371;28;20040;-67
2022/05/23 00:49:49;;;;;;;5.30;2.00;;;14.60;99.90;;;;;;5092961;28;20671;-67
2022/05/23 00:52:39;;;;;;;4.07;1.98;;;14.50;99.90;;;;;;5093281;28;20044;-67
2022/05/23 00:55:17;;;;;;;7.20;2.10;;;14.50;99.90;;;;;;5093054;28;20135;-67
2022/05/23 00:57:46;;;;;;;6.35;2.45;;;14.50;99.90;;;;;;5093240;28;20046;-67
2022/05/23 01:00:13;;;;;;;3.63;1.90;;;14.50;99.90;;;;;;5092402;28;20032;-67
2022/05/23 01:02:40;;;;;;;4.22;2.28;;;14.50;99.90;;;;;;5093019;28;20123;-67
2022/05/23 01:05:08;;;;;;;6.88;2.53;;;14.50;99.90;;;;;;5091283;28;20062;-67
2022/05/23 01:07:33;;;;;;;3.20;1.92;;;14.40;99.90;;;;;;5092674;28;20036;-67
2022/05/23 01:09:59;;;;;;;3.60;1.85;;;14.40;99.90;;;;;;5092147;28;20613;-67
2022/05/23 01:12:25;;;;;;;8.23;2.60;;;14.40;99.90;;;;;;5092397;28;20133;-66
2022/05/23 01:14:55;;;;;;;4.55;2.20;;;14.40;99.90;;;;;;5092071;28;20485;-67
2022/05/23 01:17:23;;;;;;;4.97;1.83;;;14.40;99.90;;;;;;5092563;28;20441;-67
2022/05/23 01:19:49;;;;;;;4.78;2.08;;;14.40;99.90;;;;;;5092099;28;20399;-67
2022/05/23 01:22:40;;;;;;;5.45;2.20;;;14.40;99.90;;;;;;5092307;28;20109;-67
2022/05/23 01:25:31;;;;;;;3.03;2.10;;;14.40;99.90;;;;;;5091443;28;20441;-67
2022/05/23 01:27:57;;;;;;;4.97;2.05;;;14.40;99.90;;;;;;5092250;28;20400;-67
2022/05/23 01:30:23;;;;;;;5.60;2.22;;;14.40;99.90;;;;;;5091831;28;20036;-67
2022/05/23 01:32:49;;;;;;;4.47;1.98;;;14.40;99.90;;;;;;5092075;28;20122;-67
2022/05/23 01:35:15;;;;;;;4.85;1.90;;;14.40;99.90;;;;;;5091791;28;20123;-67
2022/05/23 01:37:40;;;;;;;3.95;1.98;;;14.40;99.90;;;;;;5091829;28;20032;-67
2022/05/23 01:40:10;;;;;;;3.47;2.13;;;14.40;99.90;;;;;;5091675;28;20040;-67
2022/05/23 01:42:36;;;;;;;3.50;1.88;;;14.40;99.90;;;;;;5091887;28;20040;-67
2022/05/23 01:45:02;;;;;;;8.98;1.95;;;14.40;99.90;;;;;;5091877;28;20503;-67
2022/05/23 01:47:28;;;;;;;4.78;2.40;;;14.40;99.90;;;;;;5091832;28;20059;-67
2022/05/23 01:49:53;;;;;;;6.53;1.90;;;14.30;99.90;;;;;;5091452;28;20456;-67
2022/05/23 01:52:19;;;;;;;5.88;2.30;;;14.30;99.90;;;;;;5091611;28;20044;-67
2022/05/23 01:54:44;;;;;;;3.65;1.70;;;14.40;99.90;;;;;;5091738;28;20051;-67
2022/05/23 01:57:12;;;;;;;5.38;1.90;;;14.40;99.90;;;;;;5091873;28;20043;-67
2022/05/23 02:02:22;;;;;;;5.50;1.88;;;14.40;99.90;;;;;;5091492;28;20043;-67
2022/05/23 02:04:47;;;;;;;4.47;2.10;;;14.30;99.90;;;;;;5091291;28;20048;-67
2022/05/23 02:07:14;;;;;;;5.07;1.80;;;14.40;99.90;;;;;;5091385;28;20101;-67
2022/05/23 02:09:41;;;;;;;3.20;1.80;;;14.30;99.90;;;;;;5091218;28;20044;-67
2022/05/23 02:12:08;;;;;;;4.55;1.80;;;14.30;99.90;;;;;;5091423;28;20114;-67
2022/05/23 02:14:34;;;;;;;4.53;2.15;;;14.30;99.90;;;;;;5091101;28;20048;-67
2022/05/23 02:17:00;;;;;;;6.38;2.20;;;14.40;99.90;;;;;;5091371;28;20063;-67
2022/05/23 02:19:26;;;;;;;8.82;2.33;;;14.30;99.90;;;;;;5090725;28;20032;-67
2022/05/23 02:21:51;;;;;;;6.10;2.63;;;14.40;99.90;;;;;;5091369;28;20032;-67
2022/05/23 02:24:17;;;;;;;5.40;2.20;;;14.40;99.90;;;;;;5091254;28;20381;-67
2022/05/23 02:26:43;;;;;;;3.42;2.00;;;14.30;99.90;;;;;;5091254;28;20082;-67
2022/05/23 02:29:10;;;;;;;5.25;2.03;;;14.30;99.90;;;;;;5090762;28;20032;-67
2022/05/23 02:31:36;;;;;;;5.05;2.60;;;14.30;99.90;;;;;;5090972;28;20040;-67
2022/05/23 02:34:02;;;;;;;6.78;2.25;;;14.30;99.90;;;;;;5090865;28;20040;-67
2022/05/23 02:36:28;;;;;;;7.28;2.60;;;14.30;99.90;;;;;;5091059;28;20666;-67
2022/05/23 02:38:53;;;;;;;6.43;2.28;;;14.30;99.90;;;;;;5090798;28;20028;-67
2022/05/23 02:41:19;;;;;;;5.32;2.05;;;14.30;99.90;;;;;;5090928;28;20115;-67
2022/05/23 02:43:45;;;;;;;5.15;2.30;;;14.30;99.90;;;;;;5090827;28;20039;-67
2022/05/23 02:46:10;;;;;;;5.35;2.20;;;14.20;99.90;;;;;;5090800;28;20119;-67
2022/05/23 02:48:36;;;;;;;3.90;2.38;;;14.20;99.90;;;;;;5090326;28;20096;-67
2022/05/23 02:51:02;;;;;;;9.00;2.15;;;14.20;99.90;;;;;;5090865;28;20036;-67
2022/05/23 02:53:27;;;;;;;3.10;2.22;;;14.20;99.90;;;;;;5090858;28;20048;-67
2022/05/23 02:55:53;;;;;;;7.03;2.40;;;14.20;99.90;;;;;;5090902;28;20044;-67
2022/05/23 02:58:18;;;;;;;5.68;2.45;;;14.20;99.90;;;;;;5090739;28;20429;-67
2022/05/23 03:00:44;;;;;;;4.20;2.17;;;14.20;99.90;;;;;;5090415;28;20039;-67
2022/05/23 03:03:10;;;;;;;4.20;2.20;;;14.20;99.90;;;;;;5090521;28;20039;-67
2022/05/23 03:05:47;;;;;;;6.72;2.25;;;14.20;99.90;;;;;;5090865;28;20040;-67
2022/05/23 03:08:16;;;;;;;6.32;2.50;;;14.20;99.90;;;;;;5090798;28;20040;-67
2022/05/23 03:10:42;;;;;;;5.80;2.53;;;14.20;99.90;;;;;;5090505;28;20070;-67
2022/05/23 03:13:09;;;;;;;6.53;2.53;;;14.20;99.90;;;;;;5090612;28;20072;-67
2022/05/23 03:15:34;;;;;;;8.07;2.45;;;14.20;99.90;;;;;;5089488;28;20057;-67
2022/05/23 03:18:00;;;;;;;4.78;2.47;;;14.10;99.90;;;;;;5090783;28;20043;-67
2022/05/23 03:20:27;;;;;;;3.35;2.58;;;14.20;99.90;;;;;;5090212;28;20036;-67
2022/05/23 03:28:22;;;;;;;3.65;2.33;;;14.10;99.90;;;;;;5088158;28;20055;-67
2022/05/23 03:30:48;;;;;;;6.35;2.53;;;14.10;99.90;;;;;;5088096;28;20036;-67
2022/05/23 03:33:15;;;;;;;5.63;2.42;;;14.10;99.90;;;;;;5089897;28;20047;-67
2022/05/23 03:35:42;;;;;;;5.43;2.63;;;14.10;99.90;;;;;;5089366;28;20079;-67
2022/05/23 03:38:09;;;;;;;5.75;2.38;;;14.10;99.90;;;;;;5088448;28;20040;-67
2022/05/23 03:40:37;;;;;;;8.15;2.97;;;14.10;99.90;;;;;;5089911;28;20071;-67
2022/05/23 03:43:03;;;;;;;9.18;2.80;;;14.10;99.90;;;;;;5089138;28;20120;-67
2022/05/23 03:45:30;;;;;;;6.90;3.10;;;14.00;99.90;;;;;;5090516;28;20032;-67
2022/05/23 03:47:56;;;;;;;7.53;3.08;;;14.10;99.90;;;;;;5090075;28;20040;-67
2022/05/23 03:50:24;;;;;;;4.22;2.50;;;14.10;99.90;;;;;;5093696;28;20084;-68
2022/05/23 03:52:50;;;;;;;5.53;2.90;;;14.00;99.90;;;;;;5093969;28;20397;-67
2022/05/23 03:55:17;;;;;;;4.88;2.75;;;14.00;99.90;;;;;;5093659;28;20047;-67
2022/05/23 03:57:43;;;;;;;5.65;2.60;;;14.00;99.90;;;;;;5094073;28;20547;-67
2022/05/23 04:00:12;;;;;;;5.95;3.22;;;14.00;99.90;;;;;;5092031;28;20079;-67
2022/05/23 04:02:37;;;;;;;7.70;2.80;;;14.00;99.90;;;;;;5093838;28;20077;-67
2022/05/23 04:05:05;;;;;;;8.02;3.00;;;14.00;99.90;;;;;;5093589;28;20062;-67
2022/05/23 04:07:31;;;;;;;5.00;3.00;;;14.00;99.90;;;;;;5093553;28;20074;-67
2022/05/23 04:09:57;;;;;;;8.38;2.95;;;13.90;99.90;;;;;;5093038;28;20047;-67
2022/05/23 04:12:22;;;;;;;7.90;2.75;;;14.00;99.90;;;;;;5093695;28;20050;-67
2022/05/23 04:14:48;;;;;;;5.10;2.63;;;14.00;99.90;;;;;;5093541;28;20047;-67
2022/05/23 04:17:14;;;;;;;6.90;3.00;;;14.00;99.90;;;;;;5093553;28;20127;-67
2022/05/23 04:19:39;;;;;;;7.47;3.17;;;14.00;99.90;;;;;;5093148;28;20078;-67
2022/05/23 04:22:05;;;;;;;5.57;2.92;;;13.90;99.90;;;;;;5092112;28;20433;-67
2022/05/23 04:24:30;;;;;;;7.72;3.15;;;13.90;99.90;;;;;;5093137;28;20048;-67
2022/05/23 04:26:57;;;;;;;7.47;3.22;;;13.90;99.90;;;;;;5093250;28;20082;-67
2022/05/23 04:29:24;;;;;;;4.53;2.92;;;13.90;99.90;;;;;;5093039;28;20443;-67
2022/05/23 04:31:49;;;;;;;8.35;3.33;;;13.90;99.90;;;;;;5093288;28;20044;-67
2022/05/23 04:37:00;;;;;;;6.53;3.10;;;13.90;99.90;;;;;;5093015;28;20548;-67
2022/05/23 04:39:26;;;;;;;4.95;3.13;;;13.90;99.90;;;;;;5092847;28;20115;-67
2022/05/23 04:41:51;;;;;;;7.32;3.40;;;14.00;99.90;;;;;;5093180;28;20554;-67
2022/05/23 04:44:17;;;;;;;6.40;4.10;;;14.00;99.90;;;;;;5092947;28;20040;-67
2022/05/23 04:49:45;;;;;;;4.78;3.33;;;14.00;99.90;;;;;;5092491;28;20123;-67
2022/05/23 04:52:14;;;;;;;9.23;3.38;;;14.10;99.90;;;;;;5092797;28;20048;-67
2022/05/23 04:54:41;;;;;;;5.40;3.30;;;14.10;99.90;;;;;;5092763;28;20036;-67
2022/05/23 04:57:08;;;;;;;7.20;3.58;;;14.10;99.90;;;;;;5092758;28;20404;-67
2022/05/23 04:59:34;;;;;;;6.95;3.63;;;14.20;99.90;;;;;;5091172;28;20044;-67
2022/05/23 05:02:01;;;;;;;7.72;3.58;;;14.20;99.90;;;;;;5092545;28;20393;-67
2022/05/23 05:04:27;;;;;;;8.02;3.47;;;14.10;99.90;;;;;;5092754;28;20048;-67
2022/05/23 05:06:53;;;;;;;11.13;3.55;;;14.20;99.90;;;;;;5092818;28;20173;-67
2022/05/23 05:09:18;;;;;;;6.05;3.58;;;14.20;99.90;;;;;;5092268;28;20048;-67
2022/05/23 05:11:44;;;;;;;10.82;4.10;;;14.20;99.90;;;;;;5092467;28;20075;-67
2022/05/23 05:14:10;;;;;;;9.38;3.60;;;14.20;99.90;;;;;;5092276;28;20419;-67
2022/05/23 05:16:36;;;;;;;8.73;3.60;;;14.20;99.90;;;;;;5091006;28;20152;-67
2022/05/23 05:19:02;;;;;;;7.68;4.18;;;14.20;99.90;;;;;;5092136;28;20064;-67
2022/05/23 05:21:28;;;;;;;11.93;3.92;;;14.30;99.90;;;;;;5092354;28;20122;-67
2022/05/23 05:23:54;;;;;;;5.50;3.90;;;14.30;99.90;;;;;;5092160;28;20040;-67
2022/05/23 05:26:19;;;;;;;6.07;3.97;;;14.40;99.90;;;;;;5092161;28;20582;-67
2022/05/23 05:28:45;;;;;;;9.20;4.30;;;14.50;99.90;;;;;;5091791;28;20055;-67
2022/05/23 05:31:17;;;;;;;5.70;3.95;;;14.70;99.90;;;;;;5091853;28;20040;-67
2022/05/23 05:33:53;;;;;;;8.90;4.10;;;14.90;99.90;;;;;;5092204;28;20408;-67
2022/05/23 05:36:23;;;;;;;11.80;4.63;;;15.10;99.90;;;;;;5092063;28;20048;-67
2022/05/23 05:38:56;;;;;;;11.13;4.22;;;15.30;99.90;;;;;;5091659;28;20032;-67
2022/05/23 05:41:30;;;;;;;8.48;4.35;;;15.50;99.90;;;;;;5091724;28;20545;-67
2022/05/23 05:44:02;;;;;;;7.55;4.70;;;15.60;99.90;;;;;;5092085;28;20040;-67
2022/05/23 05:46:39;;;;;;;12.13;4.60;;;15.80;99.90;;;;;;5092005;28;20044;-67
2022/05/23 05:49:09;;;;;;;7.88;4.85;;;15.80;99.90;;;;;;5091397;28;20833;-67
2022/05/23 05:51:37;;;;;;;5.93;3.88;;;15.90;99.90;;;;;;5091727;28;20069;-67
2022/05/23 05:54:06;;;;;;;7.75;4.45;;;16.00;99.90;;;;;;5091486;28;20042;-67
2022/05/23 05:56:32;;;;;;;12.20;4.35;;;16.10;99.90;;;;;;5090378;28;20173;-67
2022/05/23 05:58:58;;;;;;;8.00;4.10;;;16.10;99.90;;;;;;5091304;28;20053;-67
2022/05/23 06:01:24;;;;;;;7.32;4.10;;;16.10;99.90;;;;;;5091557;28;20047;-67
2022/05/23 06:03:50;;;;;;;7.38;5.03;;;16.20;99.90;;;;;;5091583;28;20104;-68
2022/05/23 06:11:44;;;;;;;11.18;4.80;;;16.30;99.90;;;;;;5091089;28;20492;-67
2022/05/23 06:14:09;;;;;;;11.82;5.88;;;16.40;99.90;;;;;;5091320;28;20044;-67
2022/05/23 06:16:37;;;;;;;9.73;5.20;;;16.50;99.90;;;;;;5091290;28;20046;-68
2022/05/23 06:19:04;;;;;;;10.32;4.80;;;16.60;99.90;;;;;;5090744;28;20039;-67
2022/05/23 06:21:30;;;;;;;12.27;5.30;;;16.70;99.90;;;;;;5091057;28;20036;-68
2022/05/23 06:23:56;;;;;;;12.25;5.07;;;16.80;99.90;;;;;;5091267;28;20108;-67
2022/05/23 06:26:26;;;;;;;11.23;5.20;;;16.90;99.90;;;;;;5091228;28;20076;-68
2022/05/23 06:28:52;;;;;;;6.03;4.93;;;16.90;99.90;;;;;;5090989;28;20044;-67
2022/05/23 06:31:18;;;;;;;8.32;4.72;;;17.00;99.90;;;;;;5091055;28;20085;-67
2022/05/23 06:33:44;;;;;;;9.68;4.75;;;17.10;99.90;;;;;;5090860;28;20040;-68
2022/05/23 06:36:11;;;;;;;10.30;5.20;;;17.20;99.90;;;;;;5091069;28;20036;-67
2022/05/23 06:38:38;;;;;;;8.63;4.72;;;17.30;99.90;;;;;;5090781;28;20085;-67
2022/05/23 06:41:06;;;;;;;8.20;4.50;;;17.30;99.90;;;;;;5090993;28;20502;-67
2022/05/23 06:43:32;;;;;;;11.70;4.70;;;17.40;99.90;;;;;;5090940;28;20046;-67
2022/05/23 06:45:59;;;;;;;12.50;5.50;;;17.50;99.90;;;;;;5090778;28;20097;-67
2022/05/23 06:48:25;;;;;;;8.52;4.88;;;17.50;99.90;;;;;;5072432;28;20044;-68
2022/05/23 06:50:52;;;;;;;8.35;4.32;;;17.50;99.90;;;;;;5090881;28;20067;-67
2022/05/23 06:53:21;;;;;;;9.98;4.60;;;17.70;99.90;;;;;;5090920;28;20047;-67
2022/05/23 06:55:48;;;;;;;11.60;4.10;;;17.80;99.90;;;;;;5091015;28;20036;-67
2022/05/23 06:58:14;;;;;;;6.18;4.30;;;17.90;99.90;;;;;;5090846;28;20040;-67
2022/05/23 07:00:40;;;;;;;9.63;4.68;;;18.00;99.90;;;;;;5090344;28;20028;-67
2022/05/23 07:03:06;;;;;;;8.35;4.43;;;18.10;99.90;;;;;;5090898;28;20036;-67
2022/05/23 07:13:47;;;;;;;7.70;4.20;;;18.40;99.90;;;;;;5090712;28;20044;-68
2022/05/23 07:16:16;;;;;;;11.07;4.75;;;18.50;99.90;;;;;;5090702;28;20540;-68
2022/05/23 07:18:42;;;;;;;8.88;4.57;;;18.70;99.90;;;;;;5090311;28;20059;-67
2022/05/23 07:21:07;;;;;;;8.45;4.28;;;18.70;99.90;;;;;;5090428;28;20111;-67
2022/05/23 07:23:35;;;;;;;13.43;4.50;;;18.80;99.90;;;;;;5092627;28;20101;-67
2022/05/23 07:26:05;;;;;;;7.35;4.35;;;18.80;99.90;;;;;;5094506;28;20560;-67
2022/05/23 07:28:31;;;;;;;9.20;4.38;;;18.90;99.90;;;;;;5094187;28;20036;-67
2022/05/23 07:30:58;;;;;;;9.30;4.70;;;19.10;99.90;;;;;;5094486;28;20462;-67
2022/05/23 07:33:24;;;;;;;7.80;4.97;;;19.10;99.90;;;;;;5093163;28;20043;-68
2022/05/23 07:36:00;;;;;;;9.52;5.00;;;19.30;99.90;;;;;;5094249;28;20055;-67
2022/05/23 07:38:28;;;;;;;8.77;4.28;;;19.30;99.90;;;;;;5094232;28;20389;-67
2022/05/23 07:40:54;;;;;;;9.90;4.38;;;19.40;99.90;;;;;;5094281;28;20040;-68
2022/05/23 07:43:20;;;;;;;6.32;3.95;;;19.40;99.90;;;;;;5094285;28;20165;-68
2022/05/23 07:45:48;;;;;;;7.47;4.55;;;19.50;99.90;;;;;;5094180;28;20107;-67
2022/05/23 07:48:14;;;;;;;6.65;4.53;;;19.50;99.90;;;;;;5075850;28;20048;-67
2022/05/23 07:50:43;;;;;;;8.80;4.30;;;19.60;99.90;;;;;;5092474;28;20051;-68
2022/05/23 08:01:27;;;;;;;6.50;4.10;;;19.80;99.90;;;;;;5094146;28;20056;-67
2022/05/23 08:03:52;;;;;;;7.60;5.95;;;20.00;99.90;;;;;;5094003;28;20113;-68
2022/05/23 08:06:18;;;;;;;6.80;4.47;;;20.10;99.90;;;;;;5093933;28;20496;-67
2022/05/23 08:08:43;;;;;;;9.90;4.45;;;20.00;99.90;;;;;;5093561;28;20655;-67
2022/05/23 08:11:09;;;;;;;8.15;4.32;;;20.00;99.90;;;;;;5093761;28;20073;-67
2022/05/23 08:13:37;;;;;;;8.45;4.63;;;20.10;99.90;;;;;;5093453;28;20040;-67
2022/05/23 08:16:03;;;;;;;10.10;4.20;;;20.30;99.90;;;;;;5093700;28;20047;-68
2022/05/23 08:18:28;;;;;;;13.25;4.35;;;20.30;99.90;;;;;;5093347;28;20040;-68
2022/05/23 08:20:54;;;;;;;8.13;3.53;;;20.40;99.90;;;;;;5093419;28;20397;-67
2022/05/23 08:23:21;;;;;;;10.60;4.72;;;20.50;99.90;;;;;;5093435;28;20036;-67
2022/05/23 08:25:46;;;;;;;8.68;4.50;;;20.50;99.90;;;;;;5093305;28;20040;-67
2022/05/23 08:28:13;;;;;;;8.32;4.53;;;20.60;99.90;;;;;;5093151;28;20046;-67
2022/05/23 08:30:39;;;;;;;9.38;4.10;;;20.50;99.90;;;;;;5092900;28;20473;-68
2022/05/23 08:33:05;;;;;;;8.32;3.97;;;20.70;99.90;;;;;;5093294;28;20032;-67
2022/05/23 08:35:31;;;;;;;13.63;4.40;;;20.80;99.90;;;;;;5093044;28;20581;-68
2022/05/23 08:37:58;;;;;;;7.72;4.30;;;20.90;99.90;;;;;;5093132;28;20056;-67
2022/05/23 08:40:47;;;;;;;8.23;3.75;;;21.00;99.90;;;;;;5092736;28;20043;-67
2022/05/23 08:43:25;;;;;;;6.32;3.78;;;21.10;99.90;;;;;;5093291;28;20373;-67
2022/05/23 08:45:56;;;;;;;9.52;4.43;;;21.30;99.90;;;;;;5093133;28;20124;-67
2022/05/23 08:48:27;;;;;;;11.07;4.07;;;21.30;99.90;;;;;;5092898;28;20075;-68
2022/05/23 08:50:59;;;;;;;8.07;3.78;;;21.40;99.90;;;;;;5092910;28;20032;-67
2022/05/23 08:53:34;;;;;;;8.80;3.33;;;21.40;99.90;;;;;;5092531;28;20793;-67
2022/05/23 08:56:04;;;;;;;10.05;3.55;;;21.50;99.90;;;;;;5093064;28;20093;-66
2022/05/23 08:58:41;;;;;;;5.35;3.13;;;21.50;99.90;;;;;;5092701;28;20039;-66
2022/05/23 09:01:18;;;;;;;9.60;3.78;;;21.60;99.90;;;;;;5092617;28;20040;-66
2022/05/23 09:03:53;;;;;;;6.05;3.35;;;21.80;99.90;;;;;;5091340;28;20043;-66
2022/05/23 09:06:32;;;;;;;7.25;3.40;;;22.00;99.90;;;;;;5092770;28;20032;-66
2022/05/23 09:09:10;;;;;;;7.88;3.42;;;22.10;99.90;;;;;;5092497;28;20036;-66
2022/05/23 09:12:01;;;;;;;7.53;3.15;;;21.80;99.90;;;;;;5092432;28;20047;-67
2022/05/23 09:14:26;;;;;;;6.47;3.63;;;22.00;99.90;;;;;;5091962;28;20533;-67
2022/05/23 09:16:54;;;;;;;7.40;2.97;;;22.00;99.90;;;;;;5090838;28;20072;-68
2022/05/23 09:19:32;;;;;;;9.82;3.33;;;22.10;99.90;;;;;;5091095;28;20081;-67
2022/05/23 09:22:19;;;;;;;9.85;3.20;;;22.20;99.90;;;;;;5091362;28;20477;-67
2022/05/23 09:24:53;;;;;;;6.63;3.08;;;22.30;99.90;;;;;;5091520;28;20060;-68
2022/05/23 09:27:31;;;;;;;7.00;3.58;;;22.50;99.90;;;;;;5091498;28;20598;-68
2022/05/23 09:29:58;;;;;;;10.90;3.38;;;22.40;99.90;;;;;;5091657;28;20098;-68
2022/05/23 09:32:32;;;;;;;7.75;3.42;;;22.30;99.90;;;;;;5091998;28;20051;-67
2022/05/23 09:34:59;;;;;;;6.40;3.15;;;22.30;99.90;;;;;;5091734;28;20051;-67
2022/05/23 09:37:36;;;;;;;6.10;2.92;;;22.40;99.90;;;;;;5092079;28;20173;-67
2022/05/23 09:40:03;;;;;;;4.95;2.90;;;22.40;99.90;;;;;;5091780;28;20032;-67
2022/05/23 09:48:18;;;;;;;8.35;3.20;;;22.30;99.90;;;;;;5091692;28;20048;-68
2022/05/23 09:50:52;;;;;;;4.82;2.60;;;22.30;99.90;;;;;;5091530;28;20035;-67
2022/05/23 09:53:28;;;;;;;4.10;2.22;;;22.30;99.90;;;;;;5091721;28;20066;-67
2022/05/23 09:55:53;;;;;;;4.88;1.92;;;22.60;99.90;;;;;;5091936;28;20039;-67
2022/05/23 09:58:37;;;;;;;4.30;1.98;;;22.60;99.90;;;;;;5091616;28;20404;-67
2022/05/23 10:01:10;;;;;;;6.40;1.90;;;22.80;99.90;;;;;;5091385;28;20045;-67
2022/05/23 10:03:48;;;;;;;5.13;2.10;;;22.80;99.90;;;;;;5090507;28;20058;-67
2022/05/23 10:06:14;;;;;;;9.30;2.38;;;22.90;99.90;;;;;;5091649;28;20044;-68
2022/05/23 10:08:43;;;;;;;6.85;2.85;;;23.00;99.90;;;;;;5091328;28;20063;-68
2022/05/23 10:11:32;;;;;;;8.20;2.70;;;23.10;99.90;;;;;;5091456;28;20040;-67
2022/05/23 10:14:05;;;;;;;8.77;2.33;;;23.10;99.90;;;;;;5091332;28;20494;-68
2022/05/23 10:16:44;;;;;;;5.05;2.58;;;23.40;99.90;;;;;;5091223;28;20040;-68
2022/05/23 10:19:22;;;;;;;7.38;2.17;;;23.40;99.90;;;;;;5090851;28;20568;-68
2022/05/23 10:22:03;;;;;;;6.72;2.10;;;23.60;99.90;;;;;;5091250;28;20512;-67
2022/05/23 10:24:29;;;;;;;8.55;2.53;;;23.50;99.90;;;;;;5091302;28;20047;-67
2022/05/23 10:27:00;;;;;;;7.25;2.10;;;23.50;99.90;;;;;;5091084;28;20119;-67
2022/05/23 10:29:53;;;;;;;4.75;1.75;;;23.60;99.90;;;;;;5090975;28;20445;-68
2022/05/23 10:32:31;;;;;;;4.40;2.28;;;23.60;99.90;;;;;;5083326;28;20091;-68
2022/05/23 10:35:06;;;;;;;8.70;2.33;;;23.60;99.90;;;;;;5090953;28;20450;-68
2022/05/23 10:37:39;;;;;;;5.65;2.10;;;23.70;99.90;;;;;;5090978;28;20462;-68
2022/05/23 10:43:12;;;;;;;2.97;2.05;;;23.60;99.90;;;;;;5091156;28;20040;-67
2022/05/23 10:46:01;;;;;;;4.07;1.80;;;23.70;99.90;;;;;;5090894;28;20381;-68
2022/05/23 10:48:38;;;;;;;4.18;2.28;;;23.90;99.90;;;;;;5090773;28;20044;-68
2022/05/23 10:51:21;;;;;;;6.38;1.80;;;23.80;99.90;;;;;;5090898;28;20105;-68
2022/05/23 10:54:08;;;;;;;3.60;1.67;;;23.90;99.90;;;;;;5090772;28;20064;-68
2022/05/23 10:56:40;;;;;;;5.65;1.80;;;23.80;98.00;;;;;;5089763;28;20052;-67
2022/05/23 10:59:12;;;;;;;4.38;1.63;;;24.00;99.90;;;;;;5093823;28;20112;-68
2022/05/23 11:02:03;;;;;;;6.82;1.75;;;23.90;97.20;;;;;;5095056;28;20066;-68
2022/05/23 11:05:00;;;;;;;8.05;1.95;;;23.90;99.90;;;;;;5094702;28;20048;-67
2022/05/23 11:07:52;;;;;;;5.90;2.47;;;24.10;99.90;;;;;;5095043;28;20080;-67
2022/05/23 11:10:23;;;;;;;6.47;2.15;;;24.10;99.90;;;;;;5094533;28;20085;-67
2022/05/23 11:13:14;;;;;;;4.95;2.03;;;24.00;99.40;;;;;;5094754;28;20043;-67
2022/05/23 11:16:06;;;;;;;5.78;2.13;;;23.90;99.90;;;;;;5094836;28;20052;-67
2022/05/23 11:18:53;;;;;;;7.70;2.40;;;24.10;99.90;;;;;;5094483;28;20036;-68
2022/05/23 11:21:32;;;;;;;5.22;2.30;;;24.10;99.90;;;;;;5094580;28;20381;-68
2022/05/23 11:24:04;;;;;;;4.90;2.58;;;24.10;99.90;;;;;;5094800;28;20055;-67
2022/05/23 11:26:46;;;;;;;4.88;2.80;;;24.10;99.90;;;;;;5094746;28;20130;-68
2022/05/23 11:34:57;;;;;;;4.43;2.22;;;24.00;99.90;;;;;;5094421;28;20052;-68
2022/05/23 11:40:01;;;;;;;6.20;2.33;;;24.30;99.90;;;;;;5093917;28;20048;-68
2022/05/23 11:42:56;;;;;;;5.50;2.58;;;24.40;99.90;;;;;;5094450;28;20042;-67
2022/05/23 11:48:39;;;;;;;4.85;2.65;;;24.40;99.90;;;;;;5094028;28;20044;-67
2022/05/23 11:51:09;;;;;;;6.82;2.72;;;24.50;99.90;;;;;;5093992;28;20433;-68
2022/05/23 11:53:37;;;;;;;7.85;3.22;;;24.50;99.40;;;;;;5094066;28;20044;-67
2022/05/23 11:56:30;;;;;;;6.22;2.97;;;24.60;99.90;;;;;;5094025;28;20040;-68
2022/05/23 11:58:56;;;;;;;5.97;2.38;;;24.60;99.90;;;;;;5093500;28;20514;-68
2022/05/23 12:01:26;;;;;;;4.88;2.38;;;24.50;99.90;;;;;;5092571;28;20127;-68
2022/05/23 12:03:52;;;;;;;5.70;2.78;;;24.70;99.90;;;;;;5093805;28;20040;-67
2022/05/23 12:06:19;;;;;;;4.95;2.97;;;24.60;99.90;;;;;;5092493;28;20086;-67
2022/05/23 12:08:57;;;;;;;3.90;2.40;;;24.50;99.50;;;;;;5092980;28;20039;-68
2022/05/23 12:11:25;;;;;;;6.90;2.40;;;24.60;99.90;;;;;;5093854;28;20119;-68
2022/05/23 12:13:52;;;;;;;4.18;1.95;;;24.40;99.70;;;;;;5093699;28;20511;-68
2022/05/23 12:16:22;;;;;;;7.72;2.10;;;24.30;99.90;;;;;;5093717;28;20127;-68
2022/05/23 12:18:49;;;;;;;3.53;1.83;;;24.30;99.90;;;;;;5093301;28;20109;-68
2022/05/23 12:21:36;;;;;;;5.07;1.83;;;24.30;99.40;;;;;;5093430;28;20392;-68
2022/05/23 12:24:21;;;;;;;3.20;2.17;;;24.30;99.90;;;;;;5093615;28;20063;-67
2022/05/23 12:26:52;;;;;;;5.47;2.20;;;24.30;99.20;;;;;;5093523;28;20032;-68
2022/05/23 12:29:29;;;;;;;5.18;2.45;;;24.40;99.90;;;;;;5093140;28;20050;-67
2022/05/23 12:32:16;;;;;;;9.48;2.42;;;24.40;99.70;;;;;;5093330;28;20055;-68
2022/05/23 12:34:44;;;;;;;5.72;2.53;;;24.50;99.90;;;;;;5093430;28;20040;-68
2022/05/23 12:37:21;;;;;;;8.85;2.85;;;24.30;99.90;;;;;;5093384;28;20043;-67
2022/05/23 12:39:52;;;;;;;5.80;2.85;;;24.40;99.90;;;;;;5092824;28;20028;-67
2022/05/23 12:42:45;;;;;;;4.22;2.70;;;24.30;99.90;;;;;;5092944;28;20036;-67
2022/05/23 12:45:45;;;;;;;6.15;2.30;;;24.30;99.90;;;;;;5093176;28;20036;-68
2022/05/23 12:48:21;;;;;;;10.93;3.13;;;24.10;99.90;;;;;;5093014;28;20048;-67
2022/05/23 12:51:11;;;;;;;10.07;2.67;;;24.00;99.90;;;;;;5092685;28;20054;-67
2022/05/23 12:54:10;;;;;;;8.50;2.70;;;24.00;99.90;;;;;;5093017;28;20047;-68
2022/05/23 12:57:20;;;;;;;6.22;3.25;;;24.00;99.90;;;;;;5092840;28;20044;-68
2022/05/23 12:59:56;;;;;;;7.40;3.10;;;24.00;99.90;;;;;;5089111;28;20085;-68
2022/05/23 13:02:42;;;;;;;5.75;2.75;;;23.90;99.90;;;;;;5092651;28;20568;-67
2022/05/23 13:05:13;;;;;;;5.28;2.80;;;23.90;99.90;;;;;;5092501;28;20047;-68
2022/05/23 13:08:15;;;;;;;5.18;2.95;;;23.90;99.90;;;;;;5092601;28;20493;-68
2022/05/23 13:10:47;;;;;;;7.63;3.53;;;23.80;99.90;;;;;;5092357;28;20066;-68
2022/05/23 13:13:31;;;;;;;10.35;3.58;;;23.60;99.90;;;;;;5091205;28;20082;-67
2022/05/23 13:16:12;;;;;;;5.30;2.63;;;23.50;99.90;;;;;;5092654;28;20047;-68
2022/05/23 13:27:05;;;;;;;6.68;3.85;;;23.30;99.90;;;;;;5092094;28;20134;-67
2022/05/23 13:29:32;;;;;;;5.40;4.03;;;23.20;99.90;;;;;;5091889;28;20044;-67
2022/05/23 13:32:07;;;;;;;6.65;3.80;;;23.10;99.90;;;;;;5092198;28;20134;-68
2022/05/23 13:34:42;;;;;;;8.32;4.03;;;23.20;99.90;;;;;;5091935;28;20400;-68
2022/05/23 13:37:08;;;;;;;8.73;4.53;;;23.20;99.90;;;;;;5073873;28;20043;-67
2022/05/23 13:39:44;;;;;;;6.85;4.00;;;23.20;99.90;;;;;;5091702;28;20063;-67
2022/05/23 13:42:24;;;;;;;8.48;3.58;;;23.20;99.90;;;;;;5091962;28;20070;-67
2022/05/23 13:44:51;;;;;;;8.38;3.92;;;23.20;99.90;;;;;;5091803;28;20147;-67
2022/05/23 13:47:21;;;;;;;6.65;3.60;;;23.30;99.90;;;;;;5091763;28;20055;-68
2022/05/23 13:50:00;;;;;;;10.18;3.60;;;23.30;99.90;;;;;;5091540;28;20043;-67
2022/05/23 13:52:32;;;;;;;6.18;3.92;;;23.30;99.90;;;;;;5091697;28;20051;-68
2022/05/23 13:55:09;;;;;;;4.35;3.58;;;23.30;99.90;;;;;;5091669;28;20088;-67
2022/05/23 13:57:40;;;;;;;11.55;3.85;;;23.30;99.90;;;;;;5091741;28;20054;-68
2022/05/23 14:00:13;;;;;;;9.40;4.15;;;23.40;99.90;;;;;;5091193;28;20157;-67
2022/05/23 14:02:50;;;;;;;6.72;3.75;;;23.50;99.90;;;;;;5091701;28;20089;-67
2022/05/23 14:05:19;;;;;;;7.05;3.67;;;23.50;99.90;;;;;;5091568;28;20035;-67
2022/05/23 14:07:44;;;;;;;10.40;3.28;;;23.50;99.90;;;;;;5091405;28;20039;-68
2022/05/23 14:10:17;;;;;;;6.68;3.22;;;23.50;99.90;;;;;;5091041;28;20400;-68
2022/05/23 14:12:46;;;;;;;7.68;3.78;;;23.60;99.90;;;;;;5091476;28;20043;-67
2022/05/23 14:15:12;;;;;;;7.28;3.50;;;23.60;99.90;;;;;;5091434;28;20043;-68